Huvudsida
METAR-TAF:

METAR-TAF

Flygplatser :

Skellefteå Airport

Skellefteå, Sverige

latitud: 64-38N, longitud: 021-05E, höjd: 49 m

Aktuellt väderrapport

Denna rapport gjordes för 32 minuter sedan, klockan 12:20 UTC
Vind 12 kt från syd, varierande mellan syd/sydost och sydväst
Temperatur 20°C
Fuktighet 43%
Tryck 1005 hPa
Sikt 10 km eller mer

METAR: ESNS 181220Z AUTO 19012KT 150V220 9999 NCD 20/07 Q1005

Tid: 14:52 (12:52 UTC)

Väderprognos

Denna rapport gjordes för 7 timmar och 22 minuter sedan, klockan 05:30 UTC
Prognos gäller från 18 kl. 06 UTC till 18 kl. 10 UTC
Vind 5 kt från sydväst
Sikt 10 km eller mer
Inga moln under 1 500 m eller inga cumulonimbus

TAF: ESNS 180530Z 1806/1810 23005KT CAVOK

Aktuella väderrapporter och prognoser från 4000 flygplatser (METAR- och TAF-rapporter).

De tillgängliga stationerna syns som gula och röda prickar på kartan.

För musen över prickarna för att se namnen på stationerna.

Klicka sedan för att få väderrapporter och prognoser.

För att ändra kartan: Klicka på de gröna knapparna med ett svart kors på för att zooma in; den gröna knappen med ett streck på för att zooma ut; eller på de gröna pilarna för angränsande kartor.


METAR-TAF: